sensor_id;sensor_type;location;lat;lon;timestamp;P1;durP1;ratioP1;P2;durP2;ratioP2
79088;SDS011;68489;50.286;9.452;2023-11-19T00:00:39;0.80;;;0.10;;
79088;SDS011;68489;50.286;9.452;2023-11-19T00:03:04;1.10;;;0.10;;
79088;SDS011;68489;50.286;9.452;2023-11-19T00:05:30;1.85;;;0.10;;
79088;SDS011;68489;50.286;9.452;2023-11-19T00:07:56;1.67;;;0.10;;
79088;SDS011;68489;50.286;9.452;2023-11-19T00:10:21;1.17;;;0.10;;
79088;SDS011;68489;50.286;9.452;2023-11-19T00:12:48;1.40;;;0.10;;
79088;SDS011;68489;50.286;9.452;2023-11-19T00:15:14;1.55;;;0.20;;
79088;SDS011;68489;50.286;9.452;2023-11-19T00:17:41;2.33;;;0.20;;
79088;SDS011;68489;50.286;9.452;2023-11-19T00:20:10;3.35;;;0.20;;
79088;SDS011;68489;50.286;9.452;2023-11-19T00:22:36;1.85;;;0.13;;
79088;SDS011;68489;50.286;9.452;2023-11-19T00:25:01;3.40;;;0.20;;
79088;SDS011;68489;50.286;9.452;2023-11-19T00:27:28;1.25;;;0.10;;
79088;SDS011;68489;50.286;9.452;2023-11-19T00:29:53;2.43;;;0.43;;
79088;SDS011;68489;50.286;9.452;2023-11-19T00:32:19;1.93;;;0.10;;
79088;SDS011;68489;50.286;9.452;2023-11-19T00:34:44;1.80;;;0.10;;
79088;SDS011;68489;50.286;9.452;2023-11-19T00:37:10;2.30;;;0.20;;
79088;SDS011;68489;50.286;9.452;2023-11-19T00:39:35;4.50;;;0.20;;
79088;SDS011;68489;50.286;9.452;2023-11-19T00:42:00;2.17;;;0.20;;
79088;SDS011;68489;50.286;9.452;2023-11-19T00:44:26;4.90;;;0.30;;
79088;SDS011;68489;50.286;9.452;2023-11-19T00:46:51;2.50;;;0.20;;
79088;SDS011;68489;50.286;9.452;2023-11-19T00:49:16;2.60;;;0.30;;
79088;SDS011;68489;50.286;9.452;2023-11-19T00:51:41;1.70;;;0.20;;
79088;SDS011;68489;50.286;9.452;2023-11-19T00:54:07;2.92;;;0.30;;
79088;SDS011;68489;50.286;9.452;2023-11-19T00:56:32;3.50;;;0.40;;
79088;SDS011;68489;50.286;9.452;2023-11-19T00:58:57;3.27;;;0.20;;
79088;SDS011;68489;50.286;9.452;2023-11-19T01:01:25;2.72;;;0.30;;
79088;SDS011;68489;50.286;9.452;2023-11-19T01:03:50;2.78;;;0.20;;
79088;SDS011;68489;50.286;9.452;2023-11-19T01:06:26;1.97;;;0.20;;
79088;SDS011;68489;50.286;9.452;2023-11-19T01:08:52;2.83;;;0.30;;
79088;SDS011;68489;50.286;9.452;2023-11-19T01:11:21;2.58;;;0.20;;
79088;SDS011;68489;50.286;9.452;2023-11-19T01:13:46;3.70;;;0.35;;
79088;SDS011;68489;50.286;9.452;2023-11-19T01:16:12;2.60;;;0.32;;
79088;SDS011;68489;50.286;9.452;2023-11-19T01:18:38;2.60;;;0.30;;
79088;SDS011;68489;50.286;9.452;2023-11-19T01:21:04;2.55;;;0.30;;
79088;SDS011;68489;50.286;9.452;2023-11-19T01:23:29;3.72;;;0.30;;
79088;SDS011;68489;50.286;9.452;2023-11-19T01:25:55;3.00;;;0.30;;
79088;SDS011;68489;50.286;9.452;2023-11-19T01:28:20;2.43;;;0.33;;
79088;SDS011;68489;50.286;9.452;2023-11-19T01:30:45;3.37;;;0.30;;
79088;SDS011;68489;50.286;9.452;2023-11-19T01:33:10;5.20;;;0.50;;
79088;SDS011;68489;50.286;9.452;2023-11-19T01:35:36;2.90;;;0.30;;
79088;SDS011;68489;50.286;9.452;2023-11-19T01:38:01;2.90;;;0.37;;
79088;SDS011;68489;50.286;9.452;2023-11-19T01:40:26;2.63;;;0.30;;
79088;SDS011;68489;50.286;9.452;2023-11-19T01:42:52;2.10;;;0.20;;
79088;SDS011;68489;50.286;9.452;2023-11-19T01:45:21;2.33;;;0.30;;
79088;SDS011;68489;50.286;9.452;2023-11-19T01:47:51;2.88;;;0.40;;
79088;SDS011;68489;50.286;9.452;2023-11-19T01:50:16;2.33;;;0.30;;
79088;SDS011;68489;50.286;9.452;2023-11-19T01:52:42;2.42;;;0.22;;
79088;SDS011;68489;50.286;9.452;2023-11-19T01:55:07;2.47;;;0.27;;
79088;SDS011;68489;50.286;9.452;2023-11-19T01:57:35;2.47;;;0.30;;
79088;SDS011;68489;50.286;9.452;2023-11-19T02:00:03;3.42;;;0.13;;
79088;SDS011;68489;50.286;9.452;2023-11-19T02:02:28;2.88;;;0.28;;
79088;SDS011;68489;50.286;9.452;2023-11-19T02:04:54;2.75;;;0.30;;
79088;SDS011;68489;50.286;9.452;2023-11-19T02:07:21;1.52;;;0.20;;
79088;SDS011;68489;50.286;9.452;2023-11-19T02:09:46;3.17;;;0.30;;
79088;SDS011;68489;50.286;9.452;2023-11-19T02:12:11;1.83;;;0.30;;
79088;SDS011;68489;50.286;9.452;2023-11-19T02:14:37;2.50;;;0.10;;
79088;SDS011;68489;50.286;9.452;2023-11-19T02:17:02;1.50;;;0.20;;
79088;SDS011;68489;50.286;9.452;2023-11-19T02:19:27;2.85;;;0.25;;
79088;SDS011;68489;50.286;9.452;2023-11-19T02:21:53;4.85;;;0.10;;
79088;SDS011;68489;50.286;9.452;2023-11-19T02:24:20;2.00;;;0.20;;
79088;SDS011;68489;50.286;9.452;2023-11-19T02:29:21;2.35;;;0.20;;
79088;SDS011;68489;50.286;9.452;2023-11-19T02:31:47;1.73;;;0.10;;
79088;SDS011;68489;50.286;9.452;2023-11-19T02:34:12;1.65;;;0.17;;
79088;SDS011;68489;50.286;9.452;2023-11-19T02:36:38;1.88;;;0.10;;
79088;SDS011;68489;50.286;9.452;2023-11-19T02:39:03;1.17;;;0.10;;
79088;SDS011;68489;50.286;9.452;2023-11-19T02:41:28;1.50;;;0.20;;
79088;SDS011;68489;50.286;9.452;2023-11-19T02:43:54;1.77;;;0.10;;
79088;SDS011;68489;50.286;9.452;2023-11-19T02:46:19;2.17;;;0.10;;
79088;SDS011;68489;50.286;9.452;2023-11-19T02:48:45;1.98;;;0.22;;
79088;SDS011;68489;50.286;9.452;2023-11-19T02:51:11;1.27;;;0.10;;
79088;SDS011;68489;50.286;9.452;2023-11-19T02:53:37;2.45;;;0.20;;
79088;SDS011;68489;50.286;9.452;2023-11-19T02:56:02;1.83;;;0.20;;
79088;SDS011;68489;50.286;9.452;2023-11-19T02:58:42;1.95;;;0.13;;
79088;SDS011;68489;50.286;9.452;2023-11-19T03:03:44;1.92;;;0.10;;
79088;SDS011;68489;50.286;9.452;2023-11-19T03:06:14;2.75;;;0.32;;
79088;SDS011;68489;50.286;9.452;2023-11-19T03:08:39;1.47;;;0.20;;
79088;SDS011;68489;50.286;9.452;2023-11-19T03:11:04;1.87;;;0.10;;
79088;SDS011;68489;50.286;9.452;2023-11-19T03:13:30;2.37;;;0.20;;
79088;SDS011;68489;50.286;9.452;2023-11-19T03:15:55;2.05;;;0.10;;
79088;SDS011;68489;50.286;9.452;2023-11-19T03:18:20;2.30;;;0.20;;
79088;SDS011;68489;50.286;9.452;2023-11-19T03:20:46;2.33;;;0.13;;
79088;SDS011;68489;50.286;9.452;2023-11-19T03:23:12;2.40;;;0.10;;
79088;SDS011;68489;50.286;9.452;2023-11-19T03:25:37;2.20;;;0.10;;
79088;SDS011;68489;50.286;9.452;2023-11-19T03:28:03;1.30;;;0.10;;
79088;SDS011;68489;50.286;9.452;2023-11-19T03:30:28;3.42;;;0.30;;
79088;SDS011;68489;50.286;9.452;2023-11-19T03:32:54;2.53;;;0.10;;
79088;SDS011;68489;50.286;9.452;2023-11-19T03:35:20;1.17;;;0.00;;
79088;SDS011;68489;50.286;9.452;2023-11-19T03:37:46;1.52;;;0.20;;
79088;SDS011;68489;50.286;9.452;2023-11-19T03:40:11;1.45;;;0.10;;
79088;SDS011;68489;50.286;9.452;2023-11-19T03:42:37;1.33;;;0.25;;
79088;SDS011;68489;50.286;9.452;2023-11-19T03:45:02;1.50;;;0.10;;
79088;SDS011;68489;50.286;9.452;2023-11-19T03:47:31;2.47;;;0.10;;
79088;SDS011;68489;50.286;9.452;2023-11-19T03:49:56;1.87;;;0.00;;
79088;SDS011;68489;50.286;9.452;2023-11-19T03:52:21;1.20;;;0.10;;
79088;SDS011;68489;50.286;9.452;2023-11-19T03:54:47;2.20;;;0.10;;
79088;SDS011;68489;50.286;9.452;2023-11-19T03:57:12;0.80;;;0.07;;
79088;SDS011;68489;50.286;9.452;2023-11-19T03:59:38;1.40;;;0.10;;
79088;SDS011;68489;50.286;9.452;2023-11-19T04:02:04;1.13;;;0.10;;
79088;SDS011;68489;50.286;9.452;2023-11-19T04:04:29;1.87;;;0.10;;
79088;SDS011;68489;50.286;9.452;2023-11-19T04:06:54;4.03;;;0.13;;
79088;SDS011;68489;50.286;9.452;2023-11-19T04:09:20;1.33;;;0.10;;
79088;SDS011;68489;50.286;9.452;2023-11-19T04:11:45;1.60;;;0.10;;
79088;SDS011;68489;50.286;9.452;2023-11-19T04:14:12;1.48;;;0.10;;
79088;SDS011;68489;50.286;9.452;2023-11-19T04:16:38;1.88;;;0.20;;
79088;SDS011;68489;50.286;9.452;2023-11-19T04:19:03;2.00;;;0.10;;
79088;SDS011;68489;50.286;9.452;2023-11-19T04:21:28;1.05;;;0.10;;
79088;SDS011;68489;50.286;9.452;2023-11-19T04:23:54;1.90;;;0.10;;
79088;SDS011;68489;50.286;9.452;2023-11-19T04:26:19;1.40;;;0.10;;
79088;SDS011;68489;50.286;9.452;2023-11-19T04:28:44;1.80;;;0.20;;
79088;SDS011;68489;50.286;9.452;2023-11-19T04:31:10;2.60;;;0.30;;
79088;SDS011;68489;50.286;9.452;2023-11-19T04:33:35;1.90;;;0.20;;
79088;SDS011;68489;50.286;9.452;2023-11-19T04:36:00;2.07;;;0.17;;
79088;SDS011;68489;50.286;9.452;2023-11-19T04:38:25;1.45;;;0.20;;
79088;SDS011;68489;50.286;9.452;2023-11-19T04:40:51;1.58;;;0.10;;
79088;SDS011;68489;50.286;9.452;2023-11-19T04:43:17;1.50;;;0.10;;
79088;SDS011;68489;50.286;9.452;2023-11-19T04:45:42;1.00;;;0.10;;
79088;SDS011;68489;50.286;9.452;2023-11-19T04:48:07;4.30;;;0.20;;
79088;SDS011;68489;50.286;9.452;2023-11-19T04:50:34;1.95;;;0.20;;
79088;SDS011;68489;50.286;9.452;2023-11-19T04:52:59;1.70;;;0.20;;
79088;SDS011;68489;50.286;9.452;2023-11-19T04:55:24;2.20;;;0.20;;
79088;SDS011;68489;50.286;9.452;2023-11-19T04:57:50;1.67;;;0.20;;
79088;SDS011;68489;50.286;9.452;2023-11-19T05:00:15;1.60;;;0.10;;
79088;SDS011;68489;50.286;9.452;2023-11-19T05:02:40;1.87;;;0.17;;
79088;SDS011;68489;50.286;9.452;2023-11-19T05:05:06;1.63;;;0.10;;
79088;SDS011;68489;50.286;9.452;2023-11-19T05:07:31;2.88;;;0.20;;
79088;SDS011;68489;50.286;9.452;2023-11-19T05:09:56;1.52;;;0.10;;
79088;SDS011;68489;50.286;9.452;2023-11-19T05:12:22;1.83;;;0.10;;
79088;SDS011;68489;50.286;9.452;2023-11-19T05:14:48;0.90;;;0.00;;
79088;SDS011;68489;50.286;9.452;2023-11-19T05:17:16;1.45;;;0.10;;
79088;SDS011;68489;50.286;9.452;2023-11-19T05:19:43;1.35;;;0.00;;
79088;SDS011;68489;50.286;9.452;2023-11-19T05:22:08;1.17;;;0.10;;
79088;SDS011;68489;50.286;9.452;2023-11-19T05:24:34;1.27;;;0.10;;
79088;SDS011;68489;50.286;9.452;2023-11-19T05:27:00;1.38;;;0.20;;
79088;SDS011;68489;50.286;9.452;2023-11-19T05:29:26;1.70;;;0.10;;
79088;SDS011;68489;50.286;9.452;2023-11-19T05:31:52;1.63;;;0.10;;
79088;SDS011;68489;50.286;9.452;2023-11-19T05:34:17;1.67;;;0.10;;
79088;SDS011;68489;50.286;9.452;2023-11-19T05:36:43;1.80;;;0.10;;
79088;SDS011;68489;50.286;9.452;2023-11-19T05:39:08;1.45;;;0.10;;
79088;SDS011;68489;50.286;9.452;2023-11-19T05:41:34;1.20;;;0.10;;
79088;SDS011;68489;50.286;9.452;2023-11-19T05:43:59;2.40;;;0.20;;
79088;SDS011;68489;50.286;9.452;2023-11-19T05:46:24;2.20;;;0.20;;
79088;SDS011;68489;50.286;9.452;2023-11-19T05:48:52;3.83;;;0.20;;
79088;SDS011;68489;50.286;9.452;2023-11-19T05:51:17;1.75;;;0.20;;
79088;SDS011;68489;50.286;9.452;2023-11-19T05:53:43;1.10;;;0.10;;
79088;SDS011;68489;50.286;9.452;2023-11-19T05:56:08;2.15;;;0.10;;
79088;SDS011;68489;50.286;9.452;2023-11-19T05:58:34;1.25;;;0.10;;
79088;SDS011;68489;50.286;9.452;2023-11-19T06:01:00;1.77;;;0.03;;
79088;SDS011;68489;50.286;9.452;2023-11-19T06:03:26;1.80;;;0.10;;
79088;SDS011;68489;50.286;9.452;2023-11-19T06:05:52;0.97;;;0.10;;
79088;SDS011;68489;50.286;9.452;2023-11-19T06:08:17;1.33;;;0.10;;
79088;SDS011;68489;50.286;9.452;2023-11-19T06:10:43;17.35;;;6.47;;
79088;SDS011;68489;50.286;9.452;2023-11-19T06:13:11;3.72;;;0.63;;
79088;SDS011;68489;50.286;9.452;2023-11-19T06:15:36;1.63;;;0.10;;
79088;SDS011;68489;50.286;9.452;2023-11-19T06:18:02;1.80;;;0.10;;
79088;SDS011;68489;50.286;9.452;2023-11-19T06:20:32;10.43;;;2.40;;
79088;SDS011;68489;50.286;9.452;2023-11-19T06:22:58;3.78;;;0.70;;
79088;SDS011;68489;50.286;9.452;2023-11-19T06:25:23;5.35;;;0.43;;
79088;SDS011;68489;50.286;9.452;2023-11-19T06:27:49;4.22;;;0.30;;
79088;SDS011;68489;50.286;9.452;2023-11-19T06:30:15;12.48;;;3.63;;
79088;SDS011;68489;50.286;9.452;2023-11-19T06:32:40;3.20;;;0.43;;
79088;SDS011;68489;50.286;9.452;2023-11-19T06:35:05;8.57;;;0.50;;
79088;SDS011;68489;50.286;9.452;2023-11-19T06:37:31;3.17;;;0.60;;
79088;SDS011;68489;50.286;9.452;2023-11-19T06:39:56;3.40;;;0.60;;
79088;SDS011;68489;50.286;9.452;2023-11-19T06:42:21;3.23;;;0.40;;
79088;SDS011;68489;50.286;9.452;2023-11-19T06:44:47;4.73;;;0.40;;
79088;SDS011;68489;50.286;9.452;2023-11-19T06:47:12;2.80;;;0.50;;
79088;SDS011;68489;50.286;9.452;2023-11-19T06:49:37;4.83;;;0.70;;
79088;SDS011;68489;50.286;9.452;2023-11-19T06:52:03;4.10;;;0.50;;
79088;SDS011;68489;50.286;9.452;2023-11-19T06:54:29;3.22;;;0.40;;
79088;SDS011;68489;50.286;9.452;2023-11-19T06:56:54;3.30;;;0.50;;
79088;SDS011;68489;50.286;9.452;2023-11-19T06:59:20;4.85;;;0.75;;
79088;SDS011;68489;50.286;9.452;2023-11-19T07:01:46;4.45;;;0.80;;
79088;SDS011;68489;50.286;9.452;2023-11-19T07:04:11;5.87;;;1.27;;
79088;SDS011;68489;50.286;9.452;2023-11-19T07:06:37;4.68;;;0.85;;
79088;SDS011;68489;50.286;9.452;2023-11-19T07:09:03;5.15;;;1.10;;
79088;SDS011;68489;50.286;9.452;2023-11-19T07:11:35;4.28;;;0.85;;
79088;SDS011;68489;50.286;9.452;2023-11-19T07:14:04;4.07;;;0.90;;
79088;SDS011;68489;50.286;9.452;2023-11-19T07:16:29;5.18;;;1.35;;
79088;SDS011;68489;50.286;9.452;2023-11-19T07:18:55;6.50;;;1.35;;
79088;SDS011;68489;50.286;9.452;2023-11-19T07:21:21;6.70;;;1.33;;
79088;SDS011;68489;50.286;9.452;2023-11-19T07:23:46;23.00;;;1.30;;
79088;SDS011;68489;50.286;9.452;2023-11-19T07:26:12;8.35;;;1.00;;
79088;SDS011;68489;50.286;9.452;2023-11-19T07:28:37;11.20;;;1.10;;
79088;SDS011;68489;50.286;9.452;2023-11-19T07:31:04;5.47;;;0.90;;
79088;SDS011;68489;50.286;9.452;2023-11-19T07:33:32;6.65;;;0.77;;
79088;SDS011;68489;50.286;9.452;2023-11-19T07:35:57;6.33;;;1.33;;
79088;SDS011;68489;50.286;9.452;2023-11-19T07:38:23;6.50;;;0.80;;
79088;SDS011;68489;50.286;9.452;2023-11-19T07:40:48;5.43;;;0.70;;
79088;SDS011;68489;50.286;9.452;2023-11-19T07:43:13;7.17;;;1.10;;
79088;SDS011;68489;50.286;9.452;2023-11-19T07:45:38;13.73;;;1.37;;
79088;SDS011;68489;50.286;9.452;2023-11-19T07:48:04;47.83;;;3.37;;
79088;SDS011;68489;50.286;9.452;2023-11-19T07:50:31;17.65;;;1.25;;
79088;SDS011;68489;50.286;9.452;2023-11-19T07:52:56;43.17;;;2.65;;
79088;SDS011;68489;50.286;9.452;2023-11-19T07:55:22;69.47;;;4.43;;
79088;SDS011;68489;50.286;9.452;2023-11-19T07:57:47;55.03;;;3.30;;
79088;SDS011;68489;50.286;9.452;2023-11-19T08:00:14;33.83;;;2.20;;
79088;SDS011;68489;50.286;9.452;2023-11-19T08:02:39;45.67;;;2.13;;
79088;SDS011;68489;50.286;9.452;2023-11-19T08:05:05;15.23;;;1.02;;
79088;SDS011;68489;50.286;9.452;2023-11-19T08:07:30;10.93;;;0.90;;
79088;SDS011;68489;50.286;9.452;2023-11-19T08:09:56;22.00;;;1.50;;
79088;SDS011;68489;50.286;9.452;2023-11-19T08:12:21;9.32;;;1.00;;
79088;SDS011;68489;50.286;9.452;2023-11-19T08:14:47;14.33;;;1.17;;
79088;SDS011;68489;50.286;9.452;2023-11-19T08:17:12;36.90;;;2.00;;
79088;SDS011;68489;50.286;9.452;2023-11-19T08:19:37;12.77;;;1.00;;
79088;SDS011;68489;50.286;9.452;2023-11-19T08:22:03;6.13;;;1.10;;
79088;SDS011;68489;50.286;9.452;2023-11-19T08:24:28;4.47;;;0.80;;
79088;SDS011;68489;50.286;9.452;2023-11-19T08:26:53;5.77;;;1.10;;
79088;SDS011;68489;50.286;9.452;2023-11-19T08:29:19;14.30;;;4.95;;
79088;SDS011;68489;50.286;9.452;2023-11-19T08:31:44;5.85;;;1.38;;
79088;SDS011;68489;50.286;9.452;2023-11-19T08:34:09;9.10;;;1.33;;
79088;SDS011;68489;50.286;9.452;2023-11-19T08:36:36;4.90;;;1.15;;
79088;SDS011;68489;50.286;9.452;2023-11-19T08:39:02;5.45;;;0.75;;
79088;SDS011;68489;50.286;9.452;2023-11-19T08:41:28;4.45;;;0.80;;
79088;SDS011;68489;50.286;9.452;2023-11-19T08:43:53;4.87;;;1.13;;
79088;SDS011;68489;50.286;9.452;2023-11-19T08:46:18;4.90;;;0.90;;
79088;SDS011;68489;50.286;9.452;2023-11-19T08:48:44;4.63;;;0.70;;
79088;SDS011;68489;50.286;9.452;2023-11-19T08:51:09;3.35;;;0.40;;
79088;SDS011;68489;50.286;9.452;2023-11-19T08:53:34;3.20;;;0.40;;
79088;SDS011;68489;50.286;9.452;2023-11-19T08:56:00;11.90;;;4.32;;
79088;SDS011;68489;50.286;9.452;2023-11-19T08:58:27;3.50;;;0.40;;
79088;SDS011;68489;50.286;9.452;2023-11-19T09:00:52;3.70;;;0.73;;
79088;SDS011;68489;50.286;9.452;2023-11-19T09:03:18;4.30;;;0.70;;
79088;SDS011;68489;50.286;9.452;2023-11-19T09:05:43;4.87;;;0.50;;
79088;SDS011;68489;50.286;9.452;2023-11-19T09:08:08;3.45;;;0.40;;
79088;SDS011;68489;50.286;9.452;2023-11-19T09:10:34;3.10;;;0.40;;
79088;SDS011;68489;50.286;9.452;2023-11-19T09:12:59;3.83;;;0.40;;
79088;SDS011;68489;50.286;9.452;2023-11-19T09:15:24;5.17;;;0.40;;
79088;SDS011;68489;50.286;9.452;2023-11-19T09:17:49;2.97;;;0.47;;
79088;SDS011;68489;50.286;9.452;2023-11-19T09:20:15;2.43;;;0.30;;
79088;SDS011;68489;50.286;9.452;2023-11-19T09:22:40;4.47;;;0.43;;
79088;SDS011;68489;50.286;9.452;2023-11-19T09:25:06;2.17;;;0.22;;
79088;SDS011;68489;50.286;9.452;2023-11-19T09:27:32;3.22;;;0.30;;
79088;SDS011;68489;50.286;9.452;2023-11-19T09:29:57;6.10;;;0.50;;
79088;SDS011;68489;50.286;9.452;2023-11-19T09:32:23;4.22;;;0.47;;
79088;SDS011;68489;50.286;9.452;2023-11-19T09:34:49;4.05;;;0.55;;
79088;SDS011;68489;50.286;9.452;2023-11-19T09:37:14;3.63;;;0.30;;
79088;SDS011;68489;50.286;9.452;2023-11-19T09:39:39;2.90;;;0.50;;
79088;SDS011;68489;50.286;9.452;2023-11-19T09:42:08;3.72;;;0.57;;
79088;SDS011;68489;50.286;9.452;2023-11-19T09:44:34;3.47;;;0.68;;
79088;SDS011;68489;50.286;9.452;2023-11-19T09:47:00;6.65;;;0.43;;
79088;SDS011;68489;50.286;9.452;2023-11-19T09:49:26;3.85;;;0.55;;
79088;SDS011;68489;50.286;9.452;2023-11-19T09:51:52;4.68;;;0.30;;
79088;SDS011;68489;50.286;9.452;2023-11-19T09:54:17;3.72;;;0.52;;
79088;SDS011;68489;50.286;9.452;2023-11-19T09:56:43;5.40;;;0.60;;
79088;SDS011;68489;50.286;9.452;2023-11-19T09:59:08;6.78;;;0.88;;
79088;SDS011;68489;50.286;9.452;2023-11-19T10:01:35;5.38;;;1.20;;
79088;SDS011;68489;50.286;9.452;2023-11-19T10:04:02;4.68;;;0.32;;
79088;SDS011;68489;50.286;9.452;2023-11-19T10:06:28;4.75;;;0.50;;
79088;SDS011;68489;50.286;9.452;2023-11-19T10:08:53;3.20;;;0.40;;
79088;SDS011;68489;50.286;9.452;2023-11-19T10:11:20;12.27;;;2.80;;
79088;SDS011;68489;50.286;9.452;2023-11-19T10:13:45;6.35;;;1.35;;
79088;SDS011;68489;50.286;9.452;2023-11-19T10:16:12;6.40;;;1.33;;
79088;SDS011;68489;50.286;9.452;2023-11-19T10:18:42;7.75;;;1.52;;
79088;SDS011;68489;50.286;9.452;2023-11-19T10:21:11;3.67;;;0.35;;
79088;SDS011;68489;50.286;9.452;2023-11-19T10:23:54;2.80;;;0.30;;
79088;SDS011;68489;50.286;9.452;2023-11-19T10:26:25;6.88;;;0.50;;
79088;SDS011;68489;50.286;9.452;2023-11-19T10:28:51;3.03;;;0.52;;
79088;SDS011;68489;50.286;9.452;2023-11-19T10:31:17;3.83;;;0.55;;
79088;SDS011;68489;50.286;9.452;2023-11-19T10:33:44;3.00;;;0.30;;
79088;SDS011;68489;50.286;9.452;2023-11-19T10:36:11;4.85;;;0.50;;
79088;SDS011;68489;50.286;9.452;2023-11-19T10:38:37;6.90;;;0.40;;
79088;SDS011;68489;50.286;9.452;2023-11-19T10:41:03;4.70;;;0.40;;
79088;SDS011;68489;50.286;9.452;2023-11-19T10:43:30;4.05;;;0.30;;
79088;SDS011;68489;50.286;9.452;2023-11-19T10:46:08;7.35;;;0.50;;
79088;SDS011;68489;50.286;9.452;2023-11-19T10:48:35;3.92;;;0.32;;
79088;SDS011;68489;50.286;9.452;2023-11-19T10:51:00;6.00;;;0.43;;
79088;SDS011;68489;50.286;9.452;2023-11-19T10:53:27;2.97;;;0.22;;
79088;SDS011;68489;50.286;9.452;2023-11-19T10:55:53;2.70;;;0.30;;
79088;SDS011;68489;50.286;9.452;2023-11-19T10:58:23;4.53;;;0.40;;
79088;SDS011;68489;50.286;9.452;2023-11-19T11:00:57;7.80;;;0.30;;
79088;SDS011;68489;50.286;9.452;2023-11-19T11:03:29;4.28;;;0.40;;
79088;SDS011;68489;50.286;9.452;2023-11-19T11:06:00;6.55;;;1.25;;
79088;SDS011;68489;50.286;9.452;2023-11-19T11:08:29;11.35;;;3.72;;
79088;SDS011;68489;50.286;9.452;2023-11-19T11:10:55;3.53;;;0.30;;
79088;SDS011;68489;50.286;9.452;2023-11-19T11:13:22;16.23;;;5.15;;
79088;SDS011;68489;50.286;9.452;2023-11-19T11:15:49;8.55;;;1.45;;
79088;SDS011;68489;50.286;9.452;2023-11-19T11:18:15;4.55;;;0.40;;
79088;SDS011;68489;50.286;9.452;2023-11-19T11:20:42;7.15;;;0.32;;
79088;SDS011;68489;50.286;9.452;2023-11-19T11:28:48;2.22;;;0.20;;
79088;SDS011;68489;50.286;9.452;2023-11-19T11:31:36;2.47;;;0.10;;
79088;SDS011;68489;50.286;9.452;2023-11-19T11:37:05;3.22;;;0.20;;
79088;SDS011;68489;50.286;9.452;2023-11-19T11:39:41;3.45;;;0.20;;
79088;SDS011;68489;50.286;9.452;2023-11-19T11:45:03;4.38;;;0.20;;
79088;SDS011;68489;50.286;9.452;2023-11-19T11:50:10;5.25;;;0.30;;
79088;SDS011;68489;50.286;9.452;2023-11-19T11:55:27;3.85;;;0.22;;
79088;SDS011;68489;50.286;9.452;2023-11-19T11:57:54;4.93;;;0.20;;
79088;SDS011;68489;50.286;9.452;2023-11-19T12:02:55;3.78;;;0.10;;
79088;SDS011;68489;50.286;9.452;2023-11-19T12:05:20;5.15;;;0.10;;
79088;SDS011;68489;50.286;9.452;2023-11-19T12:07:54;5.60;;;0.20;;
79088;SDS011;68489;50.286;9.452;2023-11-19T12:10:20;1.63;;;0.10;;
79088;SDS011;68489;50.286;9.452;2023-11-19T12:12:46;6.75;;;0.20;;
79088;SDS011;68489;50.286;9.452;2023-11-19T12:15:12;3.85;;;0.30;;
79088;SDS011;68489;50.286;9.452;2023-11-19T12:20:11;8.60;;;0.30;;
79088;SDS011;68489;50.286;9.452;2023-11-19T12:22:37;3.10;;;0.20;;
79088;SDS011;68489;50.286;9.452;2023-11-19T12:25:04;3.70;;;0.40;;
79088;SDS011;68489;50.286;9.452;2023-11-19T12:27:31;3.92;;;0.35;;
79088;SDS011;68489;50.286;9.452;2023-11-19T12:29:59;2.67;;;0.32;;
79088;SDS011;68489;50.286;9.452;2023-11-19T12:32:24;4.28;;;0.40;;
79088;SDS011;68489;50.286;9.452;2023-11-19T12:34:50;6.53;;;0.17;;
79088;SDS011;68489;50.286;9.452;2023-11-19T12:37:15;3.37;;;0.10;;
79088;SDS011;68489;50.286;9.452;2023-11-19T12:39:40;3.07;;;0.17;;
79088;SDS011;68489;50.286;9.452;2023-11-19T12:42:05;5.87;;;0.10;;
79088;SDS011;68489;50.286;9.452;2023-11-19T12:44:31;8.73;;;0.60;;
79088;SDS011;68489;50.286;9.452;2023-11-19T12:47:03;12.43;;;3.42;;
79088;SDS011;68489;50.286;9.452;2023-11-19T12:49:30;6.03;;;0.85;;
79088;SDS011;68489;50.286;9.452;2023-11-19T12:51:55;8.40;;;1.55;;
79088;SDS011;68489;50.286;9.452;2023-11-19T12:54:31;20.17;;;7.20;;
79088;SDS011;68489;50.286;9.452;2023-11-19T12:56:57;6.07;;;0.32;;
79088;SDS011;68489;50.286;9.452;2023-11-19T12:59:22;6.00;;;0.40;;
79088;SDS011;68489;50.286;9.452;2023-11-19T13:01:57;2.03;;;0.10;;
79088;SDS011;68489;50.286;9.452;2023-11-19T13:06:49;4.88;;;0.17;;
79088;SDS011;68489;50.286;9.452;2023-11-19T13:09:21;7.07;;;0.30;;
79088;SDS011;68489;50.286;9.452;2023-11-19T13:11:49;8.27;;;0.63;;
79088;SDS011;68489;50.286;9.452;2023-11-19T13:14:14;5.37;;;0.17;;
79088;SDS011;68489;50.286;9.452;2023-11-19T13:16:39;6.25;;;0.32;;
79088;SDS011;68489;50.286;9.452;2023-11-19T13:19:05;4.82;;;0.10;;
79088;SDS011;68489;50.286;9.452;2023-11-19T13:21:30;3.97;;;0.17;;
79088;SDS011;68489;50.286;9.452;2023-11-19T13:23:56;6.72;;;0.32;;
79088;SDS011;68489;50.286;9.452;2023-11-19T13:26:21;6.15;;;0.22;;
79088;SDS011;68489;50.286;9.452;2023-11-19T13:28:47;4.35;;;0.20;;
79088;SDS011;68489;50.286;9.452;2023-11-19T13:31:12;7.90;;;0.38;;
79088;SDS011;68489;50.286;9.452;2023-11-19T13:33:38;6.40;;;0.20;;
79088;SDS011;68489;50.286;9.452;2023-11-19T13:36:03;6.28;;;0.50;;
79088;SDS011;68489;50.286;9.452;2023-11-19T13:38:36;12.68;;;0.40;;
79088;SDS011;68489;50.286;9.452;2023-11-19T13:41:04;6.57;;;0.68;;
79088;SDS011;68489;50.286;9.452;2023-11-19T13:43:30;8.77;;;0.75;;
79088;SDS011;68489;50.286;9.452;2023-11-19T13:45:56;4.10;;;0.30;;
79088;SDS011;68489;50.286;9.452;2023-11-19T13:48:23;4.78;;;0.38;;
79088;SDS011;68489;50.286;9.452;2023-11-19T13:50:48;9.05;;;2.00;;
79088;SDS011;68489;50.286;9.452;2023-11-19T13:53:13;7.70;;;0.70;;
79088;SDS011;68489;50.286;9.452;2023-11-19T13:55:39;3.17;;;0.10;;
79088;SDS011;68489;50.286;9.452;2023-11-19T13:58:04;17.13;;;1.75;;
79088;SDS011;68489;50.286;9.452;2023-11-19T14:00:29;2.40;;;0.40;;
79088;SDS011;68489;50.286;9.452;2023-11-19T14:02:55;2.13;;;0.10;;
79088;SDS011;68489;50.286;9.452;2023-11-19T14:05:20;4.55;;;0.38;;
79088;SDS011;68489;50.286;9.452;2023-11-19T14:07:45;6.38;;;0.20;;
79088;SDS011;68489;50.286;9.452;2023-11-19T14:10:14;7.78;;;0.47;;
79088;SDS011;68489;50.286;9.452;2023-11-19T14:12:40;2.78;;;0.25;;
79088;SDS011;68489;50.286;9.452;2023-11-19T14:15:05;4.35;;;0.10;;
79088;SDS011;68489;50.286;9.452;2023-11-19T14:17:32;9.48;;;0.50;;
79088;SDS011;68489;50.286;9.452;2023-11-19T14:19:59;3.05;;;0.20;;
79088;SDS011;68489;50.286;9.452;2023-11-19T14:22:24;4.15;;;0.10;;
79088;SDS011;68489;50.286;9.452;2023-11-19T14:24:49;5.72;;;0.95;;
79088;SDS011;68489;50.286;9.452;2023-11-19T14:27:15;2.90;;;0.22;;
79088;SDS011;68489;50.286;9.452;2023-11-19T14:29:42;4.00;;;0.30;;
79088;SDS011;68489;50.286;9.452;2023-11-19T14:32:07;2.55;;;0.10;;
79088;SDS011;68489;50.286;9.452;2023-11-19T14:34:32;4.27;;;0.10;;
79088;SDS011;68489;50.286;9.452;2023-11-19T14:36:58;4.13;;;0.10;;
79088;SDS011;68489;50.286;9.452;2023-11-19T14:39:24;1.83;;;0.10;;
79088;SDS011;68489;50.286;9.452;2023-11-19T14:41:49;2.30;;;0.10;;
79088;SDS011;68489;50.286;9.452;2023-11-19T14:44:15;3.83;;;0.30;;
79088;SDS011;68489;50.286;9.452;2023-11-19T14:46:41;4.30;;;0.10;;
79088;SDS011;68489;50.286;9.452;2023-11-19T14:49:06;8.05;;;0.20;;
79088;SDS011;68489;50.286;9.452;2023-11-19T14:51:37;3.67;;;0.30;;
79088;SDS011;68489;50.286;9.452;2023-11-19T14:54:03;3.63;;;0.10;;
79088;SDS011;68489;50.286;9.452;2023-11-19T14:56:31;5.18;;;0.13;;
79088;SDS011;68489;50.286;9.452;2023-11-19T14:58:57;3.28;;;0.10;;
79088;SDS011;68489;50.286;9.452;2023-11-19T15:01:23;4.30;;;0.30;;
79088;SDS011;68489;50.286;9.452;2023-11-19T15:03:49;8.63;;;0.80;;
79088;SDS011;68489;50.286;9.452;2023-11-19T15:06:15;2.90;;;0.10;;
79088;SDS011;68489;50.286;9.452;2023-11-19T15:08:40;4.43;;;0.10;;